SELZM ENAL-ENAL

Flight info

Callsign SELZM
Flight time 0h 50m
Altitude 2000
Route RORVIK GJOSUND
Aircraft C172/L-SBGY/S

Departure

Time 2026-04-26 14:36
Airport Ålesund Airport (ENAL)

Arrival

Time 2026-04-26 15:26
Airport Ålesund Airport (ENAL)
Time Latitude Longitude Altitude Speed Heading
2026-04-26 14:09 62.55788 6.10978 70 ft 0 kts 64°
2026-04-26 14:33 62.55788 6.10979 70 ft 0 kts 64°
2026-04-26 14:33 62.55795 6.11011 71 ft 4 kts 57°
2026-04-26 14:33 62.55834 6.11050 72 ft 9 kts 17°
2026-04-26 14:34 62.55890 6.11091 73 ft 6 kts 330°
2026-04-26 14:34 62.55910 6.10957 71 ft 13 kts 285°
2026-04-26 14:34 62.55938 6.10727 67 ft 17 kts 283°
2026-04-26 14:34 62.55959 6.10646 66 ft 1 kts 36°
2026-04-26 14:35 62.55993 6.10816 69 ft 37 kts 64°
2026-04-26 14:35 62.56174 6.11644 116 ft 76 kts 65°
2026-04-26 14:35 62.56403 6.12754 312 ft 82 kts 67°
2026-04-26 14:35 62.56639 6.13825 529 ft 80 kts 46°
2026-04-26 14:36 62.57141 6.14208 704 ft 81 kts 348°
2026-04-26 14:36 62.57610 6.13524 871 ft 84 kts 304°
2026-04-26 14:36 62.57623 6.12218 971 ft 94 kts 250°
2026-04-26 14:36 62.57330 6.10986 1067 ft 91 kts 243°
2026-04-26 14:37 62.57029 6.09744 1110 ft 94 kts 246°
2026-04-26 14:37 62.56737 6.08478 1111 ft 95 kts 246°
2026-04-26 14:37 62.56425 6.07159 993 ft 99 kts 246°
2026-04-26 14:37 62.56042 6.05972 843 ft 96 kts 216°
2026-04-26 14:38 62.55400 6.05820 599 ft 97 kts 152°
2026-04-26 14:38 62.55186 6.06998 419 ft 87 kts 75°
2026-04-26 14:38 62.55411 6.08167 223 ft 81 kts 63°
2026-04-26 14:38 62.55570 6.08871 114 ft 78 kts 64°
2026-04-26 14:39 62.55847 6.10144 64 ft 68 kts 62°
2026-04-26 14:39 62.56073 6.11183 204 ft 83 kts 64°
2026-04-26 14:39 62.56319 6.12363 405 ft 87 kts 66°
2026-04-26 14:39 62.56574 6.13540 623 ft 88 kts 52°
2026-04-26 14:40 62.57103 6.14117 799 ft 91 kts 358°
2026-04-26 14:40 62.57669 6.13550 916 ft 90 kts 311°
2026-04-26 14:40 62.57725 6.12197 960 ft 98 kts 251°
2026-04-26 14:40 62.57406 6.10859 987 ft 104 kts 243°
2026-04-26 14:41 62.57030 6.09491 1039 ft 105 kts 240°
2026-04-26 14:41 62.56641 6.08148 1110 ft 105 kts 239°
2026-04-26 14:41 62.56260 6.06817 1167 ft 104 kts 244°
2026-04-26 14:41 62.55950 6.05377 1230 ft 108 kts 248°
2026-04-26 14:42 62.55652 6.03904 1217 ft 101 kts 249°
2026-04-26 14:42 62.55373 6.02569 1086 ft 95 kts 249°
2026-04-26 14:42 62.54947 6.01515 978 ft 93 kts 209°
2026-04-26 14:42 62.54345 6.01357 966 ft 85 kts 165°
2026-04-26 14:43 62.53870 6.02067 903 ft 85 kts 122°
2026-04-26 14:43 62.53736 6.03267 834 ft 82 kts 80°
2026-04-26 14:43 62.53975 6.04356 748 ft 81 kts 50°
2026-04-26 14:43 62.54376 6.05222 649 ft 80 kts 41°
2026-04-26 14:44 62.54775 6.06032 529 ft 78 kts 44°
2026-04-26 14:44 62.55112 6.06922 404 ft 75 kts 57°
2026-04-26 14:44 62.55353 6.07885 271 ft 67 kts 64°
2026-04-26 14:44 62.55547 6.08754 141 ft 65 kts 64°
2026-04-26 14:45 62.55734 6.09621 41 ft 57 kts 64°
2026-04-26 14:45 62.55845 6.10131 51 ft 66 kts 65°
2026-04-26 14:45 62.56167 6.11620 201 ft 90 kts 65°
2026-04-26 14:45 62.56533 6.12667 429 ft 89 kts 28°
2026-04-26 14:46 62.57143 6.12841 574 ft 96 kts 345°
2026-04-26 14:46 62.57669 6.11965 767 ft 97 kts 300°
2026-04-26 14:46 62.57755 6.10528 951 ft 101 kts 261°
2026-04-26 14:46 62.57556 6.08978 986 ft 111 kts 254°
2026-04-26 14:47 62.57314 6.07367 987 ft 112 kts 253°
2026-04-26 14:47 62.57068 6.05759 985 ft 112 kts 253°
2026-04-26 14:47 62.56779 6.04218 981 ft 108 kts 244°
2026-04-26 14:47 62.56367 6.02930 978 ft 101 kts 234°
2026-04-26 14:48 62.55936 6.01737 931 ft 100 kts 233°
2026-04-26 14:48 62.55400 6.00796 860 ft 102 kts 199°
2026-04-26 14:48 62.54707 6.00834 805 ft 101 kts 158°
2026-04-26 14:48 62.54199 6.01847 745 ft 100 kts 115°
2026-04-26 14:49 62.54133 6.03297 687 ft 98 kts 73°
2026-04-26 14:49 62.54442 6.04561 612 ft 93 kts 56°
2026-04-26 14:49 62.54776 6.05665 517 ft 82 kts 57°
2026-04-26 14:49 62.55060 6.06679 417 ft 76 kts 59°
2026-04-26 14:50 62.55310 6.07700 253 ft 78 kts 63°
2026-04-26 14:50 62.55550 6.08768 105 ft 76 kts 65°
2026-04-26 14:50 62.55745 6.09674 41 ft 55 kts 64°
2026-04-26 14:50 62.55920 6.10481 62 ft 76 kts 63°
2026-04-26 14:51 62.56180 6.11648 186 ft 91 kts 63°
2026-04-26 14:51 62.56457 6.12892 426 ft 90 kts 62°
2026-04-26 14:51 62.56766 6.14077 623 ft 93 kts 45°
2026-04-26 14:51 62.57347 6.14614 810 ft 94 kts 360°
2026-04-26 14:52 62.57943 6.14073 1012 ft 96 kts 315°
2026-04-26 14:52 62.58186 6.12749 1209 ft 98 kts 271°
2026-04-26 14:52 62.58011 6.11308 1365 ft 103 kts 251°
2026-04-26 14:52 62.57736 6.09838 1476 ft 107 kts 249°
2026-04-26 14:53 62.57441 6.08316 1507 ft 110 kts 250°
2026-04-26 14:53 62.57140 6.06783 1544 ft 111 kts 249°
2026-04-26 14:53 62.56836 6.05232 1574 ft 111 kts 249°
2026-04-26 14:53 62.56532 6.03693 1594 ft 112 kts 250°
2026-04-26 14:54 62.56223 6.02140 1608 ft 112 kts 249°
2026-04-26 14:54 62.55911 6.00564 1626 ft 113 kts 249°
2026-04-26 14:54 62.55602 5.99010 1648 ft 113 kts 249°
2026-04-26 14:54 62.55293 5.97441 1663 ft 113 kts 249°
2026-04-26 14:55 62.54989 5.95862 1688 ft 113 kts 251°
2026-04-26 14:55 62.54705 5.94282 1710 ft 112 kts 257°
2026-04-26 14:55 62.54510 5.92666 1726 ft 112 kts 259°
2026-04-26 14:55 62.54315 5.91009 1746 ft 111 kts 259°
2026-04-26 14:56 62.54125 5.89395 1763 ft 111 kts 259°
2026-04-26 14:56 62.53934 5.87761 1779 ft 111 kts 259°
2026-04-26 14:56 62.53744 5.86136 1793 ft 111 kts 258°
2026-04-26 14:56 62.53461 5.84568 1805 ft 112 kts 250°
2026-04-26 14:57 62.53142 5.82989 1815 ft 113 kts 249°
2026-04-26 14:57 62.52827 5.81439 1824 ft 113 kts 250°
2026-04-26 14:57 62.52509 5.79883 1832 ft 114 kts 249°
2026-04-26 14:57 62.52197 5.78341 1939 ft 107 kts 249°
2026-04-26 14:58 62.51901 5.76895 2036 ft 104 kts 249°
2026-04-26 14:58 62.51606 5.75442 2120 ft 106 kts 249°
2026-04-26 14:58 62.51259 5.74048 2277 ft 107 kts 228°
2026-04-26 14:58 62.50602 5.73377 2433 ft 107 kts 184°
2026-04-26 14:59 62.49901 5.73804 2579 ft 105 kts 140°
2026-04-26 14:59 62.49528 5.75095 2729 ft 101 kts 96°
2026-04-26 14:59 62.49651 5.76516 2868 ft 97 kts 60°
2026-04-26 14:59 62.49821 5.77437 2943 ft 101 kts 77°
2026-04-26 15:00 62.49889 5.79579 2975 ft 112 kts 85°
2026-04-26 15:00 62.49915 5.81277 2974 ft 114 kts 85°
2026-04-26 15:00 62.49942 5.83002 2978 ft 114 kts 85°
2026-04-26 15:00 62.49965 5.84700 2967 ft 108 kts 86°
2026-04-26 15:01 62.50010 5.86280 2679 ft 106 kts 79°
2026-04-26 15:01 62.50194 5.87826 2375 ft 104 kts 68°
2026-04-26 15:01 62.50483 5.89204 2159 ft 97 kts 62°
2026-04-26 15:01 62.50802 5.90499 1994 ft 101 kts 59°
2026-04-26 15:02 62.51172 5.91919 1830 ft 111 kts 59°
2026-04-26 15:02 62.51555 5.93368 1753 ft 111 kts 59°
2026-04-26 15:02 62.51934 5.94813 1693 ft 109 kts 58°
2026-04-26 15:02 62.52316 5.96248 1596 ft 113 kts 58°
2026-04-26 15:03 62.52712 5.97729 1461 ft 115 kts 58°
2026-04-26 15:03 62.53136 5.99194 1305 ft 111 kts 56°
2026-04-26 15:03 62.53542 6.00558 1198 ft 107 kts 57°
2026-04-26 15:03 62.53941 6.01942 1039 ft 109 kts 58°
2026-04-26 15:04 62.54316 6.03334 842 ft 103 kts 60°
2026-04-26 15:04 62.54642 6.04648 681 ft 96 kts 64°
2026-04-26 15:04 62.54928 6.05950 508 ft 95 kts 65°
2026-04-26 15:04 62.55202 6.07203 336 ft 90 kts 64°
2026-04-26 15:05 62.55462 6.08378 169 ft 81 kts 65°
2026-04-26 15:05 62.55542 6.08739 127 ft 77 kts 65°
2026-04-26 15:05 62.55875 6.10267 60 ft 69 kts 63°
2026-04-26 15:05 62.56015 6.11366 226 ft 82 kts 97°
2026-04-26 15:06 62.55629 6.12238 439 ft 87 kts 166°
2026-04-26 15:06 62.55019 6.12384 622 ft 93 kts 176°
2026-04-26 15:06 62.54373 6.12467 785 ft 93 kts 178°
2026-04-26 15:06 62.53789 6.11926 883 ft 97 kts 232°
2026-04-26 15:07 62.53151 6.09154 974 ft 108 kts 259°
2026-04-26 15:07 62.53298 6.07727 935 ft 91 kts 313°
2026-04-26 15:07 62.53762 6.06951 769 ft 80 kts 334°
2026-04-26 15:08 62.54276 6.06602 596 ft 74 kts 359°
2026-04-26 15:08 62.54771 6.06778 425 ft 73 kts 21°
2026-04-26 15:08 62.55209 6.07335 280 ft 73 kts 51°
2026-04-26 15:08 62.55460 6.08344 179 ft 80 kts 66°
2026-04-26 15:09 62.55687 6.09410 54 ft 74 kts 66°
2026-04-26 15:09 62.55882 6.10303 56 ft 68 kts 64°
2026-04-26 15:09 62.56116 6.11343 221 ft 81 kts 63°
2026-04-26 15:09 62.56410 6.12406 442 ft 84 kts 36°
2026-04-26 15:10 62.56974 6.12282 612 ft 89 kts 321°
2026-04-26 15:10 62.57202 6.11547 736 ft 91 kts 293°
2026-04-26 15:10 62.57647 6.10031 864 ft 91 kts 319°
2026-04-26 15:10 62.58160 6.09168 927 ft 95 kts 327°
2026-04-26 15:11 62.58572 6.08110 1016 ft 95 kts 286°
2026-04-26 15:11 62.58315 6.06879 1035 ft 94 kts 210°
2026-04-26 15:11 62.57729 6.07217 933 ft 98 kts 124°
2026-04-26 15:11 62.57801 6.08483 967 ft 87 kts 36°
2026-04-26 15:12 62.58315 6.08212 972 ft 88 kts 301°
2026-04-26 15:12 62.58252 6.06890 930 ft 96 kts 240°
2026-04-26 15:12 62.57695 6.06075 872 ft 98 kts 205°
2026-04-26 15:12 62.57075 6.05495 805 ft 96 kts 204°
2026-04-26 15:13 62.56395 6.05301 660 ft 99 kts 181°
2026-04-26 15:13 62.55759 6.05619 504 ft 88 kts 155°
2026-04-26 15:13 62.55326 6.06386 391 ft 79 kts 112°
2026-04-26 15:13 62.55313 6.07559 309 ft 80 kts 75°
2026-04-26 15:14 62.55523 6.08660 151 ft 77 kts 65°
2026-04-26 15:14 62.55745 6.09675 43 ft 68 kts 64°
2026-04-26 15:14 62.55956 6.10647 78 ft 84 kts 63°
2026-04-26 15:14 62.55872 6.11780 270 ft 90 kts 150°
2026-04-26 15:15 62.55291 6.11646 515 ft 87 kts 211°
2026-04-26 15:15 62.54867 6.10697 703 ft 92 kts 237°
2026-04-26 15:15 62.54488 6.09521 774 ft 93 kts 242°
2026-04-26 15:15 62.54443 6.08313 653 ft 75 kts 298°
2026-04-26 15:16 62.54783 6.07523 475 ft 72 kts 333°
2026-04-26 15:16 62.55239 6.07608 322 ft 69 kts 41°
2026-04-26 15:16 62.55509 6.08567 178 ft 87 kts 61°
2026-04-26 15:16 62.56012 6.09209 360 ft 90 kts
2026-04-26 15:17 62.56597 6.09495 616 ft 88 kts 20°
2026-04-26 15:17 62.56900 6.10109 706 ft 90 kts 60°
2026-04-26 15:17 62.57543 6.10524 887 ft 85 kts 322°
2026-04-26 15:17 62.57917 6.09448 1008 ft 96 kts 305°
2026-04-26 15:18 62.58289 6.08262 1098 ft 99 kts 297°
2026-04-26 15:18 62.58130 6.06734 1015 ft 114 kts 229°
2026-04-26 15:18 62.57422 6.05961 905 ft 114 kts 199°
2026-04-26 15:18 62.56649 6.05923 793 ft 113 kts 162°
2026-04-26 15:19 62.55992 6.06739 541 ft 107 kts 149°
2026-04-26 15:19 62.55508 6.07765 326 ft 94 kts 108°
2026-04-26 15:19 62.55609 6.09056 123 ft 84 kts 64°
2026-04-26 15:19 62.55843 6.10130 52 ft 67 kts 62°
2026-04-26 15:20 62.56063 6.11141 105 ft 86 kts 64°
2026-04-26 15:20 62.55851 6.12209 322 ft 89 kts 159°
2026-04-26 15:20 62.55236 6.12359 540 ft 90 kts 181°
2026-04-26 15:20 62.54585 6.12209 689 ft 98 kts 201°
2026-04-26 15:21 62.53986 6.11384 766 ft 106 kts 228°
2026-04-26 15:21 62.53557 6.10182 913 ft 96 kts 240°
2026-04-26 15:21 62.53215 6.08986 1077 ft 90 kts 246°
2026-04-26 15:21 62.52916 6.07802 1222 ft 91 kts 225°
2026-04-26 15:22 62.52291 6.07531 1263 ft 101 kts 160°
2026-04-26 15:22 62.51988 6.08679 1234 ft 89 kts 69°
2026-04-26 15:22 62.52470 6.09058 1217 ft 86 kts 328°
2026-04-26 15:22 62.52478 6.07877 1204 ft 93 kts 224°
2026-04-26 15:23 62.51979 6.07029 1253 ft 89 kts 240°
2026-04-26 15:23 62.52150 6.05941 1233 ft 85 kts 329°
2026-04-26 15:23 62.52697 6.05390 1161 ft 87 kts 338°
2026-04-26 15:23 62.53253 6.04898 1086 ft 88 kts 341°
2026-04-26 15:24 62.53863 6.04637 1009 ft 88 kts 355°
2026-04-26 15:24 62.54476 6.04584 940 ft 88 kts
2026-04-26 15:24 62.55093 6.04672 852 ft 90 kts
2026-04-26 15:24 62.55633 6.05290 702 ft 92 kts 64°
2026-04-26 15:25 62.55557 6.06567 487 ft 88 kts 108°
2026-04-26 15:25 62.55457 6.07408 359 ft 83 kts 99°
2026-04-26 15:25 62.55594 6.08977 108 ft 77 kts 64°
2026-04-26 15:25 62.55803 6.09940 46 ft 61 kts 65°
2026-04-26 15:26 62.55938 6.10567 64 ft 16 kts 66°
2026-04-26 15:26 62.55939 6.10741 67 ft 11 kts 106°
2026-04-26 15:26 62.55919 6.10913 70 ft 9 kts 106°
2026-04-26 15:26 62.55902 6.11032 72 ft 7 kts 107°
2026-04-26 15:27 62.55875 6.11098 73 ft 5 kts 220°
2026-04-26 15:27 62.55828 6.11047 72 ft 11 kts 192°
2026-04-26 15:27 62.55781 6.10987 70 ft 4 kts 261°
2026-04-26 15:27 62.55785 6.10973 70 ft 1 kts 351°
2026-04-26 15:28 62.55786 6.10973 70 ft 0 kts 16°